Time;durP1;ratioP1;P1;durP2;ratioP2;P2;SDS_P1;SDS_P2;PMS_P1;PMS_P2;Temp;Humidity;BMP_temperature;BMP_pressure;BME280_temperature;BME280_humidity;BME280_pressure;Samples;Min_cycle;Max_cycle;Signal;HPM_P1;HPM_P2
2022/07/26 00:01:40;;;;;;;3.70;0.63;;;;;;;17.93;97.58;100769.53;5049725;28;20037;-80
2022/07/26 00:04:06;;;;;;;4.28;0.65;;;;;;;18.06;97.55;100782.47;5049638;28;20047;-81
2022/07/26 00:06:32;;;;;;;5.50;0.90;;;;;;;18.17;96.84;100787.63;5049521;28;20029;-80
2022/07/26 00:08:57;;;;;;;4.18;0.60;;;;;;;18.30;95.35;100794.44;5048262;28;20028;-81
2022/07/26 00:11:24;;;;;;;6.15;1.23;;;;;;;18.43;95.94;100787.00;5049369;28;20367;-81
2022/07/26 00:13:50;;;;;;;3.33;0.82;;;;;;;18.42;97.66;100786.16;5049269;28;20486;-81
2022/07/26 00:16:15;;;;;;;1.65;0.88;;;;;;;18.19;97.54;100785.69;5048272;28;20025;-81
2022/07/26 00:18:41;;;;;;;2.70;0.50;;;;;;;18.47;97.32;100785.72;5049768;28;20456;-81
2022/07/26 00:21:06;;;;;;;4.65;0.85;;;;;;;18.61;95.83;100782.56;5049359;28;20036;-81
2022/07/26 00:23:31;;;;;;;2.83;0.52;;;;;;;18.57;96.13;100785.69;5047985;28;20394;-81
2022/07/26 00:25:57;;;;;;;2.10;0.68;;;;;;;18.72;96.03;100791.31;5049426;28;20112;-81
2022/07/26 00:28:22;;;;;;;2.67;0.80;;;;;;;18.75;95.99;100793.69;5049367;28;20036;-81
2022/07/26 00:30:47;;;;;;;4.10;1.10;;;;;;;18.73;95.52;100791.19;5049353;28;20029;-81
2022/07/26 00:33:13;;;;;;;5.10;0.90;;;;;;;18.72;96.35;100783.34;5048896;28;20025;-81
2022/07/26 00:35:38;;;;;;;5.22;1.00;;;;;;;18.69;96.18;100784.50;5048789;28;20040;-81
2022/07/26 00:38:04;;;;;;;4.78;0.82;;;;;;;18.64;97.23;100792.06;5048073;28;20112;-81
2022/07/26 00:40:30;;;;;;;3.90;0.73;;;;;;;18.53;96.72;100789.63;5047943;28;20084;-81
2022/07/26 00:42:55;;;;;;;3.47;0.98;;;;;;;18.48;97.18;100792.69;5048977;28;20030;-81
2022/07/26 00:45:20;;;;;;;4.43;1.10;;;;;;;18.50;96.87;100796.03;5049061;28;20025;-81
2022/07/26 00:47:46;;;;;;;4.18;0.75;;;;;;;18.57;96.91;100797.16;5049116;28;20025;-81
2022/07/26 00:50:15;;;;;;;2.83;0.90;;;;;;;18.61;96.97;100793.19;5047619;28;20466;-81
2022/07/26 00:52:42;;;;;;;6.28;0.90;;;;;;;18.59;95.83;100792.50;5049017;28;20142;-81
2022/07/26 00:55:08;;;;;;;5.72;0.90;;;;;;;18.52;96.13;100788.78;5048016;28;20103;-81
2022/07/26 00:57:34;;;;;;;6.88;1.00;;;;;;;18.61;95.97;100787.88;5048596;28;20032;-81
2022/07/26 01:00:04;;;;;;;5.20;1.35;;;;;;;18.63;95.85;100799.22;5048826;28;20382;-81
2022/07/26 01:02:29;;;;;;;7.38;1.02;;;;;;;18.48;96.14;100789.22;5048845;28;20033;-81
2022/07/26 01:04:55;;;;;;;9.38;1.00;;;;;;;18.51;95.46;100789.75;5048834;28;20462;-81
2022/07/26 01:07:21;;;;;;;3.65;0.80;;;;;;;18.47;96.11;100796.34;5048703;28;20158;-81
2022/07/26 01:09:46;;;;;;;5.03;0.60;;;;;;;18.71;95.20;100795.81;5048722;28;20056;-81
2022/07/26 01:12:12;;;;;;;3.00;0.70;;;;;;;18.75;94.79;100799.03;5048802;28;20040;-81
2022/07/26 01:14:40;;;;;;;6.65;1.85;;;;;;;18.72;94.49;100809.94;5048890;28;20526;-81
2022/07/26 01:17:05;;;;;;;4.78;0.98;;;;;;;18.76;94.53;100808.66;5048504;28;20031;-81
2022/07/26 01:19:31;;;;;;;5.88;1.40;;;;;;;18.77;94.42;100802.38;5048228;28;20033;-81
2022/07/26 01:21:56;;;;;;;2.08;0.63;;;;;;;18.80;95.67;100802.13;5048530;28;20036;-81
2022/07/26 01:24:22;;;;;;;3.95;1.20;;;;;;;18.71;95.18;100811.78;5048639;28;20032;-81
2022/07/26 01:26:47;;;;;;;5.95;1.73;;;;;;;18.51;94.84;100803.06;5048481;28;20048;-81
2022/07/26 01:29:12;;;;;;;4.78;1.08;;;;;;;18.81;94.68;100809.09;5048324;28;20671;-81
2022/07/26 01:31:38;;;;;;;7.68;2.15;;;;;;;18.91;94.24;100809.88;5048419;28;20398;-81
2022/07/26 01:34:03;;;;;;;4.38;1.23;;;;;;;19.01;94.18;100821.31;5048209;28;20061;-81
2022/07/26 01:36:28;;;;;;;7.50;1.30;;;;;;;19.03;93.05;100814.00;5048288;28;20390;-81
2022/07/26 01:38:54;;;;;;;2.50;0.85;;;;;;;19.07;92.83;100821.69;5048373;28;20021;-80
2022/07/26 01:41:19;;;;;;;4.03;1.02;;;;;;;19.10;92.84;100821.41;5048690;28;20021;-80
2022/07/26 01:43:45;;;;;;;6.45;1.27;;;;;;;18.96;93.73;100812.94;5046949;28;20029;-81
2022/07/26 01:46:12;;;;;;;3.45;0.93;;;;;;;19.19;92.63;100817.84;5048303;28;20021;-81
2022/07/26 01:48:38;;;;;;;2.15;0.88;;;;;;;19.12;93.33;100811.47;5048046;28;20474;-81
2022/07/26 01:51:03;;;;;;;6.32;1.00;;;;;;;19.22;93.42;100809.56;5048472;28;20021;-81
2022/07/26 01:53:29;;;;;;;4.55;0.95;;;;;;;19.25;92.98;100811.91;5048305;28;20439;-81
2022/07/26 01:55:54;;;;;;;4.32;1.08;;;;;;;19.24;93.86;100807.59;5046612;28;20026;-81
2022/07/26 01:58:20;;;;;;;3.78;0.85;;;;;;;19.36;92.86;100808.19;5048242;28;20029;-81
2022/07/26 02:00:45;;;;;;;6.85;1.48;;;;;;;19.46;92.28;100800.97;5048115;28;20025;-81
2022/07/26 02:03:11;;;;;;;4.28;1.20;;;;;;;19.27;92.59;100809.94;5048009;28;20031;-81
2022/07/26 02:05:36;;;;;;;4.63;0.98;;;;;;;18.97;92.74;100809.28;5049128;28;20032;-81
2022/07/26 02:08:01;;;;;;;5.20;1.00;;;;;;;19.00;92.50;100803.69;5050200;28;20431;-81
2022/07/26 02:10:59;;;;;;;7.07;1.10;;;;;;;18.98;93.00;100800.31;5049999;28;20027;-81
2022/07/26 02:13:13;;;;;;;5.68;1.73;;;;;;;18.89;92.61;100795.06;5051178;28;20406;-81
2022/07/26 02:15:39;;;;;;;3.47;1.20;;;;;;;18.87;93.08;100797.03;5051096;28;20025;-81
2022/07/26 02:18:04;;;;;;;5.22;1.20;;;;;;;18.61;94.32;100798.53;5050005;28;20053;-81
2022/07/26 02:20:32;;;;;;;8.95;1.38;;;;;;;18.95;93.39;100808.59;5051202;28;20386;-81
2022/07/26 02:23:00;;;;;;;2.95;1.00;;;;;;;18.87;93.57;100813.81;5051211;28;20037;-81
2022/07/26 02:25:26;;;;;;;6.93;1.35;;;;;;;18.89;92.96;100811.03;5051238;28;20105;-81
2022/07/26 02:27:52;;;;;;;4.53;1.20;;;;;;;18.54;94.27;100808.09;5051276;28;20058;-81
2022/07/26 02:30:17;;;;;;;6.07;1.20;;;;;;;18.69;94.42;100816.41;5051036;28;20032;-81
2022/07/26 02:32:42;;;;;;;5.43;1.08;;;;;;;18.90;93.24;100818.00;5050811;28;20072;-81
2022/07/26 02:35:08;;;;;;;5.55;1.30;;;;;;;18.96;93.23;100812.94;5050961;28;20044;-81
2022/07/26 02:37:34;;;;;;;7.22;1.05;;;;;;;18.96;93.48;100818.28;5050981;28;20025;-81
2022/07/26 02:40:00;;;;;;;5.20;1.08;;;;;;;18.93;93.17;100821.22;5050862;28;20500;-81
2022/07/26 02:42:25;;;;;;;5.43;1.27;;;;;;;18.79;94.08;100819.03;5051179;28;20070;-81
2022/07/26 02:44:52;;;;;;;5.30;1.70;;;;;;;18.57;94.02;100825.56;5051011;28;20029;-81
2022/07/26 02:47:18;;;;;;;10.27;1.40;;;;;;;18.69;94.70;100827.03;5050954;28;20056;-81
2022/07/26 02:49:43;;;;;;;5.28;1.30;;;;;;;18.80;93.58;100823.41;5050848;28;20527;-81
2022/07/26 02:52:09;;;;;;;6.93;1.38;;;;;;;18.75;93.79;100828.28;5050695;28;20025;-81
2022/07/26 02:54:34;;;;;;;6.25;1.40;;;;;;;18.70;94.38;100827.88;5050756;28;20057;-81
2022/07/26 02:57:00;;;;;;;7.57;1.85;;;;;;;18.62;94.14;100817.97;5050727;28;20394;-81
2022/07/26 02:59:25;;;;;;;6.72;1.27;;;;;;;18.66;94.19;100818.53;5050694;28;20025;-81
2022/07/26 03:01:51;;;;;;;6.18;1.25;;;;;;;18.66;93.18;100821.19;5050647;28;20481;-81
2022/07/26 03:04:16;;;;;;;3.83;1.00;;;;;;;18.49;94.56;100823.63;5049160;28;20098;-81
2022/07/26 03:06:42;;;;;;;5.43;1.10;;;;;;;18.48;93.97;100818.44;5050487;28;20033;-81
2022/07/26 03:09:07;;;;;;;5.15;1.42;;;;;;;18.11;95.63;100822.75;5050501;28;20063;-80
2022/07/26 03:11:33;;;;;;;8.77;1.92;;;;;;;17.99;95.40;100826.53;5050461;28;20390;-81
2022/07/26 03:13:58;;;;;;;6.47;1.27;;;;;;;18.12;95.42;100819.13;5050585;28;20088;-81
2022/07/26 03:16:23;;;;;;;4.97;1.27;;;;;;;18.32;94.71;100817.25;5048837;28;20061;-81
2022/07/26 03:18:49;;;;;;;6.68;1.52;;;;;;;18.05;95.27;100820.69;5049855;28;20036;-81
2022/07/26 03:21:14;;;;;;;9.05;1.48;;;;;;;18.25;94.07;100834.75;5050168;28;20103;-81
2022/07/26 03:23:39;;;;;;;4.68;1.10;;;;;;;17.79;96.26;100837.19;5050170;28;20025;-80
2022/07/26 03:26:05;;;;;;;6.40;1.70;;;;;;;17.81;96.46;100837.88;5050248;28;20025;-81
2022/07/26 03:28:32;;;;;;;6.35;1.42;;;;;;;18.01;96.05;100829.94;5049952;28;20021;-81
2022/07/26 03:30:58;;;;;;;7.10;1.75;;;;;;;17.76;97.67;100831.31;5050196;28;20029;-81
2022/07/26 03:33:24;;;;;;;5.80;2.00;;;;;;;17.79;96.86;100836.31;5050057;28;20116;-81
2022/07/26 03:35:49;;;;;;;5.13;1.50;;;;;;;17.77;97.08;100840.94;5050051;28;20033;-81
2022/07/26 03:38:15;;;;;;;6.15;1.58;;;;;;;17.82;96.93;100844.84;5050051;28;20021;-81
2022/07/26 03:40:40;;;;;;;3.75;1.25;;;;;;;17.75;97.24;100838.44;5050033;28;20095;-81
2022/07/26 03:43:05;;;;;;;8.60;1.38;;;;;;;17.55;97.71;100848.19;5049889;28;20025;-81
2022/07/26 03:45:31;;;;;;;8.32;1.40;;;;;;;17.57;98.11;100851.56;5049982;28;20093;-81
2022/07/26 03:47:56;;;;;;;7.82;1.10;;;;;;;17.66;98.00;100843.75;5050031;28;20033;-81
2022/07/26 03:50:22;;;;;;;4.03;1.13;;;;;;;17.76;97.77;100845.41;5049942;28;20348;-81
2022/07/26 03:52:47;;;;;;;5.75;1.05;;;;;;;17.78;97.24;100847.94;5048373;28;20021;-81
2022/07/26 03:57:56;;;;;;;6.30;1.10;;;;;;;17.88;97.06;100854.09;5049813;28;20062;-81
2022/07/26 04:00:22;;;;;;;4.47;1.48;;;;;;;17.84;96.84;100855.38;5049720;28;20029;-81
2022/07/26 04:02:47;;;;;;;4.13;0.98;;;;;;;17.87;97.07;100856.91;5049642;28;20449;-81
2022/07/26 04:05:12;;;;;;;5.13;1.25;;;;;;;18.10;96.01;100862.75;5049720;28;20033;-81
2022/07/26 04:07:43;;;;;;;5.80;1.10;;;;;;;18.17;95.70;100866.53;5049634;28;20025;-81
2022/07/26 04:10:09;;;;;;;9.02;1.50;;;;;;;18.20;95.61;100864.41;5049487;28;20073;-81
2022/07/26 04:12:34;;;;;;;3.00;1.00;;;;;;;18.26;95.11;100865.66;5048076;28;20462;-81
2022/07/26 04:14:59;;;;;;;6.10;1.38;;;;;;;18.26;95.43;100867.50;5049661;28;20033;-81
2022/07/26 04:17:25;;;;;;;4.72;1.30;;;;;;;18.11;95.25;100867.94;5049777;28;20506;-81
2022/07/26 04:19:50;;;;;;;8.40;1.40;;;;;;;18.09;95.45;100867.25;5049619;28;20028;-81
2022/07/26 04:22:15;;;;;;;5.18;1.38;;;;;;;18.03;95.68;100868.66;5049472;28;20048;-81
2022/07/26 04:24:41;;;;;;;4.07;1.02;;;;;;;17.82;96.27;100865.28;5049348;28;20029;-81
2022/07/26 04:27:06;;;;;;;5.72;1.38;;;;;;;17.82;95.87;100867.94;5044373;27;20048;-81
2022/07/26 04:29:32;;;;;;;4.70;0.85;;;;;;;17.95;95.42;100865.84;5047912;28;20116;-81
2022/07/26 04:31:57;;;;;;;7.40;1.20;;;;;;;17.84;95.11;100858.84;5049216;28;20025;-81
2022/07/26 04:34:22;;;;;;;9.82;2.20;;;;;;;17.96;95.11;100864.03;5049165;28;20041;-81
2022/07/26 04:36:48;;;;;;;7.82;1.52;;;;;;;18.17;94.19;100870.03;5049028;28;20021;-81
2022/07/26 04:39:14;;;;;;;5.88;1.42;;;;;;;18.02;94.35;100861.63;5048977;28;20399;-81
2022/07/26 04:41:39;;;;;;;7.38;1.52;;;;;;;17.88;94.43;100870.06;5049005;28;20480;-81
2022/07/26 04:44:04;;;;;;;5.15;1.38;;;;;;;18.12;93.61;100863.47;5049069;28;20032;-81
2022/07/26 04:46:29;;;;;;;5.03;1.15;;;;;;;18.31;93.11;100870.56;5049043;28;20056;-81
2022/07/26 04:48:55;;;;;;;3.13;1.13;;;;;;;18.26;93.26;100878.13;5049062;28;20032;-81
2022/07/26 04:51:20;;;;;;;3.63;0.85;;;;;;;18.12;92.98;100874.91;5049033;28;20530;-81
2022/07/26 04:53:45;;;;;;;4.20;1.00;;;;;;;18.32;92.51;100882.88;5048918;28;20470;-81
2022/07/26 04:56:11;;;;;;;6.20;1.40;;;;;;;18.22;92.13;100881.06;5047533;28;20116;-81
2022/07/26 04:58:36;;;;;;;5.45;1.33;;;;;;;18.16;93.04;100880.78;5048600;28;20111;-81
2022/07/26 05:01:02;;;;;;;5.68;0.80;;;;;;;18.41;92.20;100882.00;5047771;28;20105;-81
2022/07/26 05:03:27;;;;;;;4.82;1.25;;;;;;;18.57;90.87;100882.25;5047488;28;20108;-81
2022/07/26 05:05:52;;;;;;;11.27;2.45;;;;;;;18.69;91.13;100876.75;5048738;28;20085;-81
2022/07/26 05:08:18;;;;;;;2.95;1.08;;;;;;;18.83;90.08;100876.31;5048844;28;20032;-81
2022/07/26 05:10:43;;;;;;;4.15;0.98;;;;;;;18.89;90.07;100881.03;5048671;28;20108;-80
2022/07/26 05:13:08;;;;;;;4.88;0.90;;;;;;;18.83;90.36;100886.94;5048432;28;20029;-81
2022/07/26 05:15:38;;;;;;;4.63;1.48;;;;;;;18.69;90.69;100880.25;5048640;28;20081;-81
2022/07/26 05:18:05;;;;;;;6.38;1.30;;;;;;;18.89;89.88;100889.00;5047392;28;20025;-81
2022/07/26 05:20:31;;;;;;;3.38;1.00;;;;;;;19.01;89.24;100895.81;5048478;28;20032;-80
2022/07/26 05:22:58;;;;;;;5.15;0.98;;;;;;;19.06;91.71;100897.22;5048642;28;20022;-81
2022/07/26 05:25:24;;;;;;;5.93;1.85;;;;;;;19.06;91.16;100897.22;5048398;28;20024;-81
2022/07/26 05:27:49;;;;;;;3.60;1.13;;;;;;;19.11;89.25;100900.25;5048546;28;20025;-81
2022/07/26 05:30:15;;;;;;;7.68;2.10;;;;;;;19.18;91.31;100894.19;5048402;28;20040;-80
2022/07/26 05:32:40;;;;;;;6.30;1.30;;;;;;;19.19;90.50;100895.91;5048224;28;20064;-81
2022/07/26 05:35:07;;;;;;;5.72;0.80;;;;;;;19.31;90.43;100901.00;5046998;28;20029;-81
2022/07/26 05:37:32;;;;;;;4.22;1.35;;;;;;;19.35;89.32;100902.38;5048379;28;20025;-81
2022/07/26 05:39:58;;;;;;;3.65;1.10;;;;;;;19.50;89.51;100906.19;5048541;28;20077;-81
2022/07/26 05:42:24;;;;;;;4.22;1.10;;;;;;;19.39;90.60;100891.28;5051855;28;20470;-81
2022/07/26 05:44:50;;;;;;;4.60;0.95;;;;;;;19.51;89.96;100901.72;5051753;28;20036;-81
2022/07/26 05:47:15;;;;;;;5.22;1.60;;;;;;;19.52;89.63;100898.91;5051721;28;20033;-81
2022/07/26 05:49:40;;;;;;;5.57;0.90;;;;;;;19.57;89.30;100887.81;5051708;28;20025;-81
2022/07/26 05:52:06;;;;;;;4.35;1.00;;;;;;;19.54;89.53;100907.56;5051850;28;20033;-81
2022/07/26 05:54:32;;;;;;;4.43;1.48;;;;;;;19.42;89.51;100914.09;5051615;28;20378;-81
2022/07/26 05:56:57;;;;;;;7.00;0.93;;;;;;;19.49;90.01;100919.66;5051831;28;20056;-81
2022/07/26 05:59:22;;;;;;;5.68;0.88;;;;;;;19.36;91.43;100910.22;5051613;28;20385;-81
2022/07/26 06:01:48;;;;;;;5.30;0.93;;;;;;;19.26;92.71;100919.25;5051575;28;20017;-81
2022/07/26 06:04:14;;;;;;;6.00;0.98;;;;;;;19.40;91.61;100922.25;5050075;28;20025;-81
2022/07/26 06:06:39;;;;;;;5.10;1.80;;;;;;;19.75;90.87;100912.66;5051438;28;20070;-81
2022/07/26 06:09:04;;;;;;;4.80;1.20;;;;;;;20.02;89.56;100916.22;5051322;28;20025;-81
2022/07/26 06:11:30;;;;;;;5.22;1.73;;;;;;;19.86;90.32;100910.75;5051374;28;20086;-81
2022/07/26 06:13:55;;;;;;;6.40;0.95;;;;;;;19.67;88.74;100919.69;5051421;28;20025;-81
2022/07/26 06:16:20;;;;;;;3.45;1.00;;;;;;;19.88;87.59;100925.59;5050080;28;20052;-81
2022/07/26 06:18:46;;;;;;;5.03;0.95;;;;;;;19.79;86.81;100922.03;5051326;28;20021;-81
2022/07/26 06:21:11;;;;;;;5.93;0.95;;;;;;;19.90;87.06;100922.78;5049915;28;20478;-81
2022/07/26 06:23:37;;;;;;;7.72;1.10;;;;;;;19.91;87.17;100927.97;5050240;28;20025;-81
2022/07/26 06:26:04;;;;;;;5.97;1.27;;;;;;;20.08;87.10;100936.94;5051006;28;20077;-81
2022/07/26 06:28:29;;;;;;;4.32;0.90;;;;;;;20.32;86.69;100930.13;5049872;28;20459;-81
2022/07/26 06:30:55;;;;;;;4.78;1.02;;;;;;;20.70;85.74;100944.09;5051090;28;20028;-81
2022/07/26 06:33:20;;;;;;;3.47;1.05;;;;;;;20.89;85.22;100945.69;5051072;28;20486;-81
2022/07/26 06:35:46;;;;;;;5.05;1.00;;;;;;;20.99;83.01;100947.28;5050900;28;20037;-81
2022/07/26 06:38:11;;;;;;;4.07;1.02;;;;;;;21.19;82.87;100937.19;5051043;28;20029;-81
2022/07/26 06:40:36;;;;;;;7.93;1.70;;;;;;;21.04;83.49;100940.63;5051063;28;20470;-81
2022/07/26 06:43:02;;;;;;;5.07;0.93;;;;;;;21.10;81.06;100942.66;5050956;28;20055;-81
2022/07/26 06:45:28;;;;;;;8.82;1.42;;;;;;;21.42;81.36;100947.28;5050856;28;20116;-81
2022/07/26 06:47:54;;;;;;;3.30;1.00;;;;;;;21.36;81.25;100959.44;5050954;28;20025;-81
2022/07/26 06:50:20;;;;;;;5.50;1.30;;;;;;;21.12;80.68;100964.69;5050625;28;20022;-81
2022/07/26 06:52:45;;;;;;;6.38;1.70;;;;;;;21.31;80.33;100960.94;5049657;28;20107;-81
2022/07/26 06:55:11;;;;;;;3.10;0.90;;;;;;;21.46;80.20;100964.69;5050709;28;20029;-81
2022/07/26 06:57:37;;;;;;;5.95;1.00;;;;;;;21.65;80.50;100966.25;5050906;28;20029;-81
2022/07/26 07:00:04;;;;;;;9.85;1.30;;;;;;;21.76;78.54;100971.28;5050659;28;20124;-81
2022/07/26 07:02:30;;;;;;;4.13;1.17;;;;;;;21.73;76.52;100960.09;5050553;28;20428;-81
2022/07/26 07:04:55;;;;;;;3.88;1.08;;;;;;;21.39;78.30;100972.47;5050477;28;20025;-81
2022/07/26 07:07:20;;;;;;;4.05;1.15;;;;;;;21.62;78.80;100974.56;5050493;28;20081;-81
2022/07/26 07:09:46;;;;;;;8.05;1.05;;;;;;;21.82;76.94;100982.31;5050507;28;20102;-81
2022/07/26 07:12:11;;;;;;;4.30;0.88;;;;;;;21.67;76.64;100985.63;5050686;28;20036;-81
2022/07/26 07:14:38;;;;;;;4.90;1.35;;;;;;;22.02;74.46;100989.06;5050432;28;20025;-81
2022/07/26 07:17:03;;;;;;;3.35;0.93;;;;;;;21.76;74.89;100983.81;5050361;28;20040;-81
2022/07/26 07:19:28;;;;;;;2.90;0.88;;;;;;;22.57;73.49;100977.72;5050179;28;20043;-81
2022/07/26 07:21:54;;;;;;;7.80;1.20;;;;;;;23.33;71.08;100985.44;5048896;28;20017;-81
2022/07/26 07:24:20;;;;;;;5.72;1.63;;;;;;;23.05;68.72;100985.84;5050326;28;20377;-81
2022/07/26 07:26:45;;;;;;;4.47;1.10;;;;;;;22.82;69.82;100983.03;5050315;28;20483;-81
2022/07/26 07:29:13;;;;;;;5.93;1.08;;;;;;;23.54;67.65;100985.66;5050257;28;20021;-81
2022/07/26 07:31:41;;;;;;;3.30;0.90;;;;;;;25.11;63.61;100980.72;5050215;28;20021;-81
2022/07/26 07:34:06;;;;;;;5.13;1.10;;;;;;;26.76;56.08;100973.81;5050085;28;20514;-81
2022/07/26 07:36:32;;;;;;;9.32;1.20;;;;;;;27.49;50.97;100974.19;5050046;28;20088;-81
2022/07/26 07:38:57;;;;;;;4.22;1.00;;;;;;;27.62;49.60;100984.19;5050041;28;20033;-81
2022/07/26 07:41:23;;;;;;;7.30;2.03;;;;;;;26.74;50.87;100975.88;5049960;28;20035;-82
2022/07/26 07:43:48;;;;;;;5.00;0.90;;;;;;;28.29;46.25;100973.53;5050006;28;20104;-81
2022/07/26 07:46:14;;;;;;;3.95;0.80;;;;;;;27.04;51.39;100981.03;5050164;28;20446;-82
2022/07/26 07:48:40;;;;;;;6.05;0.73;;;;;;;27.17;47.66;100978.38;5049698;28;20044;-82
2022/07/26 07:51:06;;;;;;;8.35;1.13;;;;;;;26.26;48.76;100981.03;5049962;28;20057;-82
2022/07/26 07:53:32;;;;;;;7.57;2.20;;;;;;;26.97;48.55;100969.38;5048689;28;20031;-82
2022/07/26 07:55:57;;;;;;;4.47;0.82;;;;;;;26.67;49.68;100980.38;5049749;28;20414;-82
2022/07/26 07:58:23;;;;;;;19.92;10.00;;;;;;;25.10;53.73;100989.00;5049911;28;20025;-81
2022/07/26 08:00:48;;;;;;;12.25;5.22;;;;;;;25.18;55.29;100986.22;5048168;28;20108;-82
2022/07/26 08:03:13;;;;;;;3.83;1.55;;;;;;;25.32;53.65;100984.56;5048311;28;20025;-82
2022/07/26 08:05:39;;;;;;;5.55;1.17;;;;;;;25.56;52.84;100994.16;5049692;28;20456;-82
2022/07/26 08:08:04;;;;;;;3.58;0.90;;;;;;;25.35;53.45;100991.41;5049706;28;20439;-81
2022/07/26 08:10:30;;;;;;;6.40;1.35;;;;;;;25.13;53.09;100988.59;5049616;28;20029;-81
2022/07/26 08:12:55;;;;;;;6.35;1.10;;;;;;;24.34;55.80;100987.16;5049750;28;20064;-81
2022/07/26 08:15:22;;;;;;;2.67;0.73;;;;;;;23.98;57.97;100989.63;5049398;28;20466;-82
2022/07/26 08:17:48;;;;;;;5.13;0.88;;;;;;;24.44;57.35;100988.78;5049372;28;20025;-81
2022/07/26 08:20:14;;;;;;;5.10;1.48;;;;;;;24.46;57.89;100992.94;5049342;28;20434;-81
2022/07/26 08:22:39;;;;;;;6.72;1.42;;;;;;;24.85;58.64;100996.47;5049417;28;20513;-82
2022/07/26 08:25:06;;;;;;;8.23;1.40;;;;;;;25.01;56.78;100995.47;5049320;28;20021;-82
2022/07/26 08:27:31;;;;;;;5.45;1.40;;;;;;;24.77;56.56;101004.63;5049209;28;20108;-81
2022/07/26 08:29:56;;;;;;;4.50;0.90;;;;;;;24.67;57.98;101002.19;5049283;28;20116;-82
2022/07/26 08:32:22;;;;;;;4.80;1.15;;;;;;;23.21;60.62;101008.25;5049315;28;20348;-82
2022/07/26 08:34:47;;;;;;;4.38;0.98;;;;;;;24.02;60.67;101015.09;5049375;28;20112;-81
2022/07/26 08:37:13;;;;;;;5.70;0.75;;;;;;;23.92;60.46;101017.16;5049483;28;20116;-82
2022/07/26 08:39:38;;;;;;;4.78;0.80;;;;;;;23.48;61.17;101004.28;5049218;28;20055;-81
2022/07/26 08:42:03;;;;;;;6.43;1.00;;;;;;;23.71;61.86;101010.53;5049191;28;20078;-81
2022/07/26 08:44:29;;;;;;;4.32;1.00;;;;;;;24.04;60.93;101004.19;5049172;28;20072;-81
2022/07/26 08:46:54;;;;;;;21.27;8.38;;;;;;;24.20;61.15;101005.91;5049041;28;20497;-81
2022/07/26 08:49:20;;;;;;;8.35;2.88;;;;;;;24.10;60.38;100998.94;5049001;28;20021;-81
2022/07/26 08:51:45;;;;;;;6.72;1.52;;;;;;;24.15;61.61;101007.28;5048918;28;20039;-82
2022/07/26 08:54:12;;;;;;;9.00;1.25;;;;;;;25.10;59.64;101005.13;5049294;27;20111;-81
2022/07/26 08:56:48;;;;;;;3.17;1.00;;;;;;;25.19;55.73;101011.22;5048822;28;20029;-82
2022/07/26 08:59:16;;;;;;;14.77;3.35;;;;;;;25.71;58.14;101007.56;5048825;28;20029;-81
2022/07/26 09:02:00;;;;;;;6.90;2.80;;;;;;;26.28;53.12;101008.59;5048913;28;20089;-81
2022/07/26 09:04:31;;;;;;;7.53;3.33;;;;;;;25.87;53.85;101009.19;5048968;28;20052;-81
2022/07/26 09:07:06;;;;;;;5.10;0.85;;;;;;;26.46;53.26;101017.06;5048757;28;20449;-81
2022/07/26 09:09:33;;;;;;;5.03;0.95;;;;;;;27.27;49.72;101011.25;5048745;28;20064;-82
2022/07/26 09:12:13;;;;;;;3.58;0.80;;;;;;;28.70;45.89;101015.75;5048653;28;20029;-82
2022/07/26 09:14:38;;;;;;;6.18;2.10;;;;;;;28.56;44.14;101012.22;5048643;28;20065;-82
2022/07/26 09:17:05;;;;;;;11.68;4.55;;;;;;;28.59;45.42;101017.19;5051907;28;20029;-82
2022/07/26 09:19:30;;;;;;;4.45;1.20;;;;;;;27.95;45.64;101018.56;5050918;28;20471;-82
2022/07/26 09:22:03;;;;;;;7.07;0.80;;;;;;;25.99;49.45;101012.22;5052049;28;20025;-82
2022/07/26 09:24:30;;;;;;;4.10;0.80;;;;;;;25.96;50.20;101009.94;5052235;28;20107;-82
2022/07/26 09:26:58;;;;;;;4.53;0.85;;;;;;;25.10;52.53;101000.56;5052036;28;20478;-82
2022/07/26 09:29:23;;;;;;;6.57;1.23;;;;;;;25.08;53.32;101013.34;5052069;28;20025;-82
2022/07/26 09:31:48;;;;;;;3.47;0.90;;;;;;;24.50;56.83;101031.00;5052185;28;20021;-82
2022/07/26 09:34:23;;;;;;;2.97;0.85;;;;;;;24.31;55.53;101026.97;5051877;28;20033;-82
2022/07/26 09:36:50;;;;;;;7.03;0.70;;;;;;;24.26;56.48;101038.22;5052041;28;20044;-82
2022/07/26 09:39:16;;;;;;;7.05;1.13;;;;;;;23.73;57.88;101029.97;5051789;28;20061;-82
2022/07/26 09:41:41;;;;;;;2.85;0.80;;;;;;;24.19;57.55;101031.06;5051928;28;20129;-82
2022/07/26 09:44:20;;;;;;;3.45;1.05;;;;;;;23.92;56.97;101030.56;5051980;28;20545;-81
2022/07/26 09:46:57;;;;;;;3.83;1.00;;;;;;;23.72;57.94;101033.66;5051814;28;20097;-81
2022/07/26 09:49:24;;;;;;;2.88;0.40;;;;;;;23.83;56.85;101023.56;5051698;28;20044;-81
2022/07/26 09:51:51;;;;;;;3.20;0.60;;;;;;;23.95;56.83;101030.22;5050659;28;20109;-81
2022/07/26 09:54:29;;;;;;;3.28;0.57;;;;;;;25.17;56.52;101018.63;5051683;28;20025;-82
2022/07/26 09:56:55;;;;;;;5.00;0.80;;;;;;;28.52;46.61;101015.56;5051611;28;20569;-81
2022/07/26 09:59:22;;;;;;;4.85;0.68;;;;;;;29.60;42.58;101018.66;5051628;28;20111;-81
2022/07/26 10:01:49;;;;;;;14.02;1.08;;;;;;;29.92;41.59;101028.69;5051604;28;20070;-82
2022/07/26 10:04:14;;;;;;;2.65;0.40;;;;;;;32.89;37.71;101018.34;5051482;28;20028;-82
2022/07/26 10:06:41;;;;;;;4.57;1.45;;;;;;;32.37;37.54;101027.16;5051437;28;20352;-82
2022/07/26 10:09:08;;;;;;;6.60;2.47;;;;;;;31.03;38.71;101016.41;5051462;28;20035;-82
2022/07/26 10:11:55;;;;;;;2.17;0.68;;;;;;;30.43;37.64;101027.75;5050242;28;20378;-82
2022/07/26 10:14:32;;;;;;;3.05;0.80;;;;;;;29.04;41.21;101035.44;5050107;28;20526;-82
2022/07/26 10:16:59;;;;;;;7.55;0.70;;;;;;;27.68;42.75;101039.19;5051252;28;20033;-82
2022/07/26 10:19:40;;;;;;;2.30;0.70;;;;;;;27.28;43.48;101039.84;5051366;28;20025;-82
2022/07/26 10:22:25;;;;;;;2.92;0.77;;;;;;;27.65;45.07;101045.84;5051307;28;20483;-82
2022/07/26 10:24:52;;;;;;;6.03;1.40;;;;;;;27.83;44.14;101044.47;5051433;28;20021;-82
2022/07/26 10:27:40;;;;;;;6.03;1.40;;;;;;;28.00;44.22;101048.50;5050958;28;20025;-82
2022/07/26 10:30:17;;;;;;;3.60;0.70;;;;;;;27.43;46.02;101039.75;5051062;28;20430;-82
2022/07/26 10:33:00;;;;;;;3.85;0.80;;;;;;;28.14;44.45;101038.56;5051101;28;20026;-82
2022/07/26 10:35:31;;;;;;;8.20;2.35;;;;;;;27.94;44.90;101043.88;5051091;28;20500;-82
2022/07/26 10:37:58;;;;;;;4.00;0.60;;;;;;;26.73;45.24;101041.53;5051084;28;20074;-82
2022/07/26 10:40:28;;;;;;;3.35;0.55;;;;;;;28.70;42.77;101036.53;5051007;28;20454;-82
2022/07/26 10:43:06;;;;;;;3.60;0.80;;;;;;;31.35;38.65;101036.03;5051067;28;20112;-82
2022/07/26 10:45:32;;;;;;;5.00;0.77;;;;;;;31.00;37.33;101027.69;5051044;28;20646;-82
2022/07/26 10:48:28;;;;;;;3.20;0.90;;;;;;;29.16;39.43;101054.59;5051006;28;20108;-82
2022/07/26 10:50:53;;;;;;;3.78;1.13;;;;;;;28.78;41.61;101047.94;5059082;28;20081;-82
2022/07/26 10:53:22;;;;;;;7.25;0.88;;;;;;;28.19;41.73;101051.44;5050748;28;20017;-82
2022/07/26 10:55:50;;;;;;;5.50;1.20;;;;;;;28.23;41.96;101044.56;5049609;28;20029;-82
2022/07/26 10:58:15;;;;;;;2.55;0.73;;;;;;;27.53;44.26;101050.16;5049463;28;20058;-82
2022/07/26 11:01:00;;;;;;;3.40;0.70;;;;;;;27.94;42.64;101045.75;5050465;28;20029;-82
2022/07/26 11:03:41;;;;;;;2.92;0.57;;;;;;;28.25;42.14;101037.09;5050833;28;20056;-82
2022/07/26 11:06:26;;;;;;;;;;;;;;;29.76;39.87;101032.75;5050895;28;20033;-82
2022/07/26 11:08:51;;;;;;;4.22;0.80;;;;;;;30.76;38.61;101032.88;5049240;28;20356;-82
2022/07/26 11:11:31;;;;;;;4.60;0.60;;;;;;;32.83;36.34;101029.34;5050605;28;20093;-82
2022/07/26 11:14:07;;;;;;;2.60;0.47;;;;;;;34.65;31.53;101013.22;5050509;28;20029;-82
2022/07/26 11:16:47;;;;;;;5.15;1.00;;;;;;;34.48;32.07;101007.81;5050402;28;20126;-82
2022/07/26 11:19:13;;;;;;;2.83;0.60;;;;;;;33.26;32.13;101017.25;5050253;28;20486;-82
2022/07/26 11:21:40;;;;;;;5.70;1.02;;;;;;;30.82;35.18;101021.13;5050347;28;20063;-83
2022/07/26 11:24:05;;;;;;;2.47;0.68;;;;;;;30.91;36.52;101020.91;5050528;28;20033;-82
2022/07/26 11:26:39;;;;;;;1.67;0.45;;;;;;;30.02;37.94;101032.59;5050444;28;20500;-83